sensor_id;sensor_type;location;lat;lon;timestamp;P1;durP1;ratioP1;P2;durP2;ratioP2
74342;SDS011;62767;50.300;8.070;2024-02-04T00:02:06;0.50;;;0.40;;
74342;SDS011;62767;50.300;8.070;2024-02-04T00:04:32;0.57;;;0.50;;
74342;SDS011;62767;50.300;8.070;2024-02-04T00:11:53;0.60;;;0.60;;
74342;SDS011;62767;50.300;8.070;2024-02-04T00:14:18;0.70;;;0.40;;
74342;SDS011;62767;50.300;8.070;2024-02-04T00:16:44;0.73;;;0.50;;
74342;SDS011;62767;50.300;8.070;2024-02-04T00:19:09;1.08;;;0.52;;
74342;SDS011;62767;50.300;8.070;2024-02-04T00:21:35;0.55;;;0.40;;
74342;SDS011;62767;50.300;8.070;2024-02-04T00:24:00;0.60;;;0.40;;
74342;SDS011;62767;50.300;8.070;2024-02-04T00:26:26;0.50;;;0.50;;
74342;SDS011;62767;50.300;8.070;2024-02-04T00:28:51;0.75;;;0.50;;
74342;SDS011;62767;50.300;8.070;2024-02-04T00:31:17;0.40;;;0.40;;
74342;SDS011;62767;50.300;8.070;2024-02-04T00:33:42;0.52;;;0.30;;
74342;SDS011;62767;50.300;8.070;2024-02-04T00:36:08;0.50;;;0.40;;
74342;SDS011;62767;50.300;8.070;2024-02-04T00:38:33;0.63;;;0.40;;
74342;SDS011;62767;50.300;8.070;2024-02-04T00:40:59;0.30;;;0.30;;
74342;SDS011;62767;50.300;8.070;2024-02-04T00:43:25;0.60;;;0.40;;
74342;SDS011;62767;50.300;8.070;2024-02-04T00:45:50;0.80;;;0.50;;
74342;SDS011;62767;50.300;8.070;2024-02-04T00:48:16;0.40;;;0.40;;
74342;SDS011;62767;50.300;8.070;2024-02-04T00:50:41;0.25;;;0.20;;
74342;SDS011;62767;50.300;8.070;2024-02-04T00:53:07;0.22;;;0.20;;
74342;SDS011;62767;50.300;8.070;2024-02-04T00:55:32;0.65;;;0.50;;
74342;SDS011;62767;50.300;8.070;2024-02-04T00:57:58;0.63;;;0.40;;
74342;SDS011;62767;50.300;8.070;2024-02-04T01:00:25;0.38;;;0.30;;
74342;SDS011;62767;50.300;8.070;2024-02-04T01:02:51;1.30;;;0.50;;
74342;SDS011;62767;50.300;8.070;2024-02-04T01:05:16;0.45;;;0.43;;
74342;SDS011;62767;50.300;8.070;2024-02-04T01:07:42;0.40;;;0.40;;
74342;SDS011;62767;50.300;8.070;2024-02-04T01:10:07;0.40;;;0.32;;
74342;SDS011;62767;50.300;8.070;2024-02-04T01:12:34;0.43;;;0.30;;
74342;SDS011;62767;50.300;8.070;2024-02-04T01:14:59;0.47;;;0.40;;
74342;SDS011;62767;50.300;8.070;2024-02-04T01:17:25;0.40;;;0.40;;
74342;SDS011;62767;50.300;8.070;2024-02-04T01:19:52;0.40;;;0.40;;
74342;SDS011;62767;50.300;8.070;2024-02-04T01:22:18;0.40;;;0.40;;
74342;SDS011;62767;50.300;8.070;2024-02-04T01:24:44;0.55;;;0.30;;
74342;SDS011;62767;50.300;8.070;2024-02-04T01:27:09;0.47;;;0.40;;
74342;SDS011;62767;50.300;8.070;2024-02-04T01:29:35;0.40;;;0.40;;
74342;SDS011;62767;50.300;8.070;2024-02-04T01:32:00;1.05;;;0.50;;
74342;SDS011;62767;50.300;8.070;2024-02-04T01:34:26;0.60;;;0.40;;
74342;SDS011;62767;50.300;8.070;2024-02-04T01:36:51;0.35;;;0.32;;
74342;SDS011;62767;50.300;8.070;2024-02-04T01:39:17;0.50;;;0.30;;
74342;SDS011;62767;50.300;8.070;2024-02-04T01:41:42;0.25;;;0.25;;
74342;SDS011;62767;50.300;8.070;2024-02-04T01:44:10;0.45;;;0.40;;
74342;SDS011;62767;50.300;8.070;2024-02-04T01:46:35;0.20;;;0.20;;
74342;SDS011;62767;50.300;8.070;2024-02-04T01:49:01;0.30;;;0.30;;
74342;SDS011;62767;50.300;8.070;2024-02-04T01:51:27;0.40;;;0.38;;
74342;SDS011;62767;50.300;8.070;2024-02-04T01:53:52;0.20;;;0.20;;
74342;SDS011;62767;50.300;8.070;2024-02-04T01:56:18;0.65;;;0.40;;
74342;SDS011;62767;50.300;8.070;2024-02-04T01:58:44;0.28;;;0.28;;
74342;SDS011;62767;50.300;8.070;2024-02-04T02:01:11;0.40;;;0.35;;
74342;SDS011;62767;50.300;8.070;2024-02-04T02:03:38;0.50;;;0.43;;
74342;SDS011;62767;50.300;8.070;2024-02-04T02:06:04;0.30;;;0.25;;
74342;SDS011;62767;50.300;8.070;2024-02-04T02:08:31;0.30;;;0.30;;
74342;SDS011;62767;50.300;8.070;2024-02-04T02:11:01;0.30;;;0.30;;
74342;SDS011;62767;50.300;8.070;2024-02-04T02:13:31;0.60;;;0.40;;
74342;SDS011;62767;50.300;8.070;2024-02-04T02:16:02;0.35;;;0.32;;
74342;SDS011;62767;50.300;8.070;2024-02-04T02:18:42;0.47;;;0.30;;
74342;SDS011;62767;50.300;8.070;2024-02-04T02:21:26;0.55;;;0.40;;
74342;SDS011;62767;50.300;8.070;2024-02-04T02:24:10;0.30;;;0.22;;
74342;SDS011;62767;50.300;8.070;2024-02-04T02:26:41;0.65;;;0.40;;
74342;SDS011;62767;50.300;8.070;2024-02-04T02:29:07;0.30;;;0.30;;
74342;SDS011;62767;50.300;8.070;2024-02-04T02:31:37;0.32;;;0.30;;
74342;SDS011;62767;50.300;8.070;2024-02-04T02:34:05;0.40;;;0.40;;
74342;SDS011;62767;50.300;8.070;2024-02-04T02:36:33;0.32;;;0.32;;
74342;SDS011;62767;50.300;8.070;2024-02-04T02:39:09;1.02;;;0.32;;
74342;SDS011;62767;50.300;8.070;2024-02-04T02:41:40;0.32;;;0.22;;
74342;SDS011;62767;50.300;8.070;2024-02-04T02:44:09;0.30;;;0.30;;
74342;SDS011;62767;50.300;8.070;2024-02-04T02:46:35;0.47;;;0.40;;
74342;SDS011;62767;50.300;8.070;2024-02-04T02:49:02;0.40;;;0.20;;
74342;SDS011;62767;50.300;8.070;2024-02-04T02:51:28;0.60;;;0.40;;
74342;SDS011;62767;50.300;8.070;2024-02-04T02:53:53;0.45;;;0.32;;
74342;SDS011;62767;50.300;8.070;2024-02-04T02:56:18;0.50;;;0.30;;
74342;SDS011;62767;50.300;8.070;2024-02-04T02:58:44;0.20;;;0.20;;
74342;SDS011;62767;50.300;8.070;2024-02-04T03:01:10;0.20;;;0.20;;
74342;SDS011;62767;50.300;8.070;2024-02-04T03:03:36;0.47;;;0.30;;
74342;SDS011;62767;50.300;8.070;2024-02-04T03:06:02;0.52;;;0.22;;
74342;SDS011;62767;50.300;8.070;2024-02-04T03:08:28;0.20;;;0.20;;
74342;SDS011;62767;50.300;8.070;2024-02-04T03:10:53;0.20;;;0.20;;
74342;SDS011;62767;50.300;8.070;2024-02-04T03:13:19;0.13;;;0.10;;
74342;SDS011;62767;50.300;8.070;2024-02-04T03:15:44;0.30;;;0.30;;
74342;SDS011;62767;50.300;8.070;2024-02-04T03:18:10;0.35;;;0.22;;
74342;SDS011;62767;50.300;8.070;2024-02-04T03:20:36;0.75;;;0.40;;
74342;SDS011;62767;50.300;8.070;2024-02-04T03:23:02;0.30;;;0.28;;
74342;SDS011;62767;50.300;8.070;2024-02-04T03:25:27;0.95;;;0.38;;
74342;SDS011;62767;50.300;8.070;2024-02-04T03:27:54;0.40;;;0.40;;
74342;SDS011;62767;50.300;8.070;2024-02-04T03:30:20;0.40;;;0.40;;
74342;SDS011;62767;50.300;8.070;2024-02-04T03:32:47;0.10;;;0.10;;
74342;SDS011;62767;50.300;8.070;2024-02-04T03:35:12;0.35;;;0.20;;
74342;SDS011;62767;50.300;8.070;2024-02-04T03:37:38;0.28;;;0.22;;
74342;SDS011;62767;50.300;8.070;2024-02-04T03:40:03;0.28;;;0.22;;
74342;SDS011;62767;50.300;8.070;2024-02-04T03:42:29;0.73;;;0.20;;
74342;SDS011;62767;50.300;8.070;2024-02-04T03:44:56;0.30;;;0.30;;
74342;SDS011;62767;50.300;8.070;2024-02-04T03:47:21;0.25;;;0.25;;
74342;SDS011;62767;50.300;8.070;2024-02-04T03:49:47;0.13;;;0.10;;
74342;SDS011;62767;50.300;8.070;2024-02-04T03:52:12;0.30;;;0.20;;
74342;SDS011;62767;50.300;8.070;2024-02-04T03:54:38;0.35;;;0.17;;
74342;SDS011;62767;50.300;8.070;2024-02-04T03:57:04;0.13;;;0.13;;
74342;SDS011;62767;50.300;8.070;2024-02-04T03:59:30;0.15;;;0.15;;
74342;SDS011;62767;50.300;8.070;2024-02-04T04:01:55;0.20;;;0.20;;
74342;SDS011;62767;50.300;8.070;2024-02-04T04:04:23;0.38;;;0.20;;
74342;SDS011;62767;50.300;8.070;2024-02-04T04:06:48;0.25;;;0.20;;
74342;SDS011;62767;50.300;8.070;2024-02-04T04:09:14;0.13;;;0.13;;
74342;SDS011;62767;50.300;8.070;2024-02-04T04:11:40;0.35;;;0.20;;
74342;SDS011;62767;50.300;8.070;2024-02-04T04:14:05;0.20;;;0.20;;
74342;SDS011;62767;50.300;8.070;2024-02-04T04:16:31;0.52;;;0.30;;
74342;SDS011;62767;50.300;8.070;2024-02-04T04:18:56;0.55;;;0.30;;
74342;SDS011;62767;50.300;8.070;2024-02-04T04:23:49;0.15;;;0.15;;
74342;SDS011;62767;50.300;8.070;2024-02-04T04:26:15;0.10;;;0.10;;
74342;SDS011;62767;50.300;8.070;2024-02-04T04:28:40;0.30;;;0.30;;
74342;SDS011;62767;50.300;8.070;2024-02-04T04:31:06;0.20;;;0.20;;
74342;SDS011;62767;50.300;8.070;2024-02-04T04:33:31;0.43;;;0.20;;
74342;SDS011;62767;50.300;8.070;2024-02-04T04:35:57;0.20;;;0.20;;
74342;SDS011;62767;50.300;8.070;2024-02-04T04:38:22;0.28;;;0.28;;
74342;SDS011;62767;50.300;8.070;2024-02-04T04:40:48;0.22;;;0.22;;
74342;SDS011;62767;50.300;8.070;2024-02-04T04:43:13;0.30;;;0.10;;
74342;SDS011;62767;50.300;8.070;2024-02-04T04:45:40;0.10;;;0.10;;
74342;SDS011;62767;50.300;8.070;2024-02-04T04:48:05;0.20;;;0.20;;
74342;SDS011;62767;50.300;8.070;2024-02-04T04:50:33;0.30;;;0.30;;
74342;SDS011;62767;50.300;8.070;2024-02-04T04:52:59;0.40;;;0.25;;
74342;SDS011;62767;50.300;8.070;2024-02-04T04:55:24;0.20;;;0.20;;
74342;SDS011;62767;50.300;8.070;2024-02-04T04:57:50;0.28;;;0.20;;
74342;SDS011;62767;50.300;8.070;2024-02-04T05:00:17;0.22;;;0.22;;
74342;SDS011;62767;50.300;8.070;2024-02-04T05:02:43;0.35;;;0.22;;
74342;SDS011;62767;50.300;8.070;2024-02-04T05:05:10;0.20;;;0.10;;
74342;SDS011;62767;50.300;8.070;2024-02-04T05:07:38;0.30;;;0.25;;
74342;SDS011;62767;50.300;8.070;2024-02-04T05:10:05;0.20;;;0.15;;
74342;SDS011;62767;50.300;8.070;2024-02-04T05:12:32;0.20;;;0.20;;
74342;SDS011;62767;50.300;8.070;2024-02-04T05:14:58;0.28;;;0.15;;
74342;SDS011;62767;50.300;8.070;2024-02-04T05:17:23;0.28;;;0.20;;
74342;SDS011;62767;50.300;8.070;2024-02-04T05:19:49;0.30;;;0.10;;
74342;SDS011;62767;50.300;8.070;2024-02-04T05:22:15;0.20;;;0.20;;
74342;SDS011;62767;50.300;8.070;2024-02-04T05:24:40;0.00;;;0.00;;
74342;SDS011;62767;50.300;8.070;2024-02-04T05:27:06;0.32;;;0.20;;
74342;SDS011;62767;50.300;8.070;2024-02-04T05:29:32;0.28;;;0.25;;
74342;SDS011;62767;50.300;8.070;2024-02-04T05:31:57;0.10;;;0.10;;
74342;SDS011;62767;50.300;8.070;2024-02-04T05:34:23;0.40;;;0.20;;
74342;SDS011;62767;50.300;8.070;2024-02-04T05:36:48;0.00;;;0.00;;
74342;SDS011;62767;50.300;8.070;2024-02-04T05:39:14;0.10;;;0.10;;
74342;SDS011;62767;50.300;8.070;2024-02-04T05:41:42;0.30;;;0.30;;
74342;SDS011;62767;50.300;8.070;2024-02-04T05:44:08;0.20;;;0.20;;
74342;SDS011;62767;50.300;8.070;2024-02-04T05:46:34;0.15;;;0.15;;
74342;SDS011;62767;50.300;8.070;2024-02-04T05:49:00;0.30;;;0.30;;
74342;SDS011;62767;50.300;8.070;2024-02-04T05:51:26;0.40;;;0.22;;
74342;SDS011;62767;50.300;8.070;2024-02-04T05:53:52;0.30;;;0.20;;
74342;SDS011;62767;50.300;8.070;2024-02-04T05:56:18;0.17;;;0.10;;
74342;SDS011;62767;50.300;8.070;2024-02-04T05:58:45;0.32;;;0.28;;
74342;SDS011;62767;50.300;8.070;2024-02-04T06:01:11;0.17;;;0.10;;
74342;SDS011;62767;50.300;8.070;2024-02-04T06:03:36;0.00;;;0.00;;
74342;SDS011;62767;50.300;8.070;2024-02-04T06:06:02;0.20;;;0.20;;
74342;SDS011;62767;50.300;8.070;2024-02-04T06:08:27;0.38;;;0.17;;
74342;SDS011;62767;50.300;8.070;2024-02-04T06:10:53;0.00;;;0.00;;
74342;SDS011;62767;50.300;8.070;2024-02-04T06:13:18;0.30;;;0.20;;
74342;SDS011;62767;50.300;8.070;2024-02-04T06:15:44;0.30;;;0.13;;
74342;SDS011;62767;50.300;8.070;2024-02-04T06:18:09;0.10;;;0.10;;
74342;SDS011;62767;50.300;8.070;2024-02-04T06:20:35;0.20;;;0.20;;
74342;SDS011;62767;50.300;8.070;2024-02-04T06:23:00;0.28;;;0.10;;
74342;SDS011;62767;50.300;8.070;2024-02-04T06:25:26;0.10;;;0.10;;
74342;SDS011;62767;50.300;8.070;2024-02-04T06:27:51;0.20;;;0.20;;
74342;SDS011;62767;50.300;8.070;2024-02-04T06:30:17;0.50;;;0.28;;
74342;SDS011;62767;50.300;8.070;2024-02-04T06:32:42;0.10;;;0.10;;
74342;SDS011;62767;50.300;8.070;2024-02-04T06:35:08;0.00;;;0.00;;
74342;SDS011;62767;50.300;8.070;2024-02-04T06:37:33;0.10;;;0.10;;
74342;SDS011;62767;50.300;8.070;2024-02-04T06:39:59;0.30;;;0.20;;
74342;SDS011;62767;50.300;8.070;2024-02-04T06:42:24;0.20;;;0.17;;
74342;SDS011;62767;50.300;8.070;2024-02-04T06:44:50;0.13;;;0.13;;
74342;SDS011;62767;50.300;8.070;2024-02-04T06:47:15;0.05;;;0.05;;
74342;SDS011;62767;50.300;8.070;2024-02-04T06:49:44;0.17;;;0.17;;
74342;SDS011;62767;50.300;8.070;2024-02-04T06:52:12;0.15;;;0.15;;
74342;SDS011;62767;50.300;8.070;2024-02-04T06:54:38;0.10;;;0.10;;
74342;SDS011;62767;50.300;8.070;2024-02-04T06:57:04;0.30;;;0.30;;
74342;SDS011;62767;50.300;8.070;2024-02-04T06:59:29;0.20;;;0.13;;
74342;SDS011;62767;50.300;8.070;2024-02-04T07:01:55;0.05;;;0.05;;
74342;SDS011;62767;50.300;8.070;2024-02-04T07:04:20;0.20;;;0.20;;
74342;SDS011;62767;50.300;8.070;2024-02-04T07:06:52;0.28;;;0.20;;
74342;SDS011;62767;50.300;8.070;2024-02-04T07:09:17;0.32;;;0.22;;
74342;SDS011;62767;50.300;8.070;2024-02-04T07:11:43;0.10;;;0.10;;
74342;SDS011;62767;50.300;8.070;2024-02-04T07:14:09;0.60;;;0.17;;
74342;SDS011;62767;50.300;8.070;2024-02-04T07:16:34;0.20;;;0.10;;
74342;SDS011;62767;50.300;8.070;2024-02-04T07:19:00;0.10;;;0.10;;
74342;SDS011;62767;50.300;8.070;2024-02-04T07:21:25;0.30;;;0.30;;
74342;SDS011;62767;50.300;8.070;2024-02-04T07:23:51;0.20;;;0.20;;
74342;SDS011;62767;50.300;8.070;2024-02-04T07:26:16;0.20;;;0.20;;
74342;SDS011;62767;50.300;8.070;2024-02-04T07:28:42;0.25;;;0.25;;
74342;SDS011;62767;50.300;8.070;2024-02-04T07:31:07;0.38;;;0.22;;
74342;SDS011;62767;50.300;8.070;2024-02-04T07:33:33;0.20;;;0.20;;
74342;SDS011;62767;50.300;8.070;2024-02-04T07:35:58;0.40;;;0.25;;
74342;SDS011;62767;50.300;8.070;2024-02-04T07:38:24;0.20;;;0.20;;
74342;SDS011;62767;50.300;8.070;2024-02-04T07:40:49;0.32;;;0.20;;
74342;SDS011;62767;50.300;8.070;2024-02-04T07:43:15;0.25;;;0.17;;
74342;SDS011;62767;50.300;8.070;2024-02-04T07:45:40;0.00;;;0.00;;
74342;SDS011;62767;50.300;8.070;2024-02-04T07:48:07;0.25;;;0.20;;
74342;SDS011;62767;50.300;8.070;2024-02-04T07:50:34;0.20;;;0.20;;
74342;SDS011;62767;50.300;8.070;2024-02-04T07:53:00;0.10;;;0.10;;
74342;SDS011;62767;50.300;8.070;2024-02-04T07:55:25;0.22;;;0.20;;
74342;SDS011;62767;50.300;8.070;2024-02-04T07:57:51;0.30;;;0.20;;
74342;SDS011;62767;50.300;8.070;2024-02-04T08:00:16;0.20;;;0.20;;
74342;SDS011;62767;50.300;8.070;2024-02-04T08:02:44;0.63;;;0.20;;
74342;SDS011;62767;50.300;8.070;2024-02-04T08:07:35;0.10;;;0.10;;
74342;SDS011;62767;50.300;8.070;2024-02-04T08:10:00;0.20;;;0.20;;
74342;SDS011;62767;50.300;8.070;2024-02-04T08:12:26;0.40;;;0.32;;
74342;SDS011;62767;50.300;8.070;2024-02-04T08:14:51;0.15;;;0.10;;
74342;SDS011;62767;50.300;8.070;2024-02-04T08:17:17;0.10;;;0.10;;
74342;SDS011;62767;50.300;8.070;2024-02-04T08:19:42;0.10;;;0.10;;
74342;SDS011;62767;50.300;8.070;2024-02-04T08:22:08;0.17;;;0.17;;
74342;SDS011;62767;50.300;8.070;2024-02-04T08:24:34;0.38;;;0.30;;
74342;SDS011;62767;50.300;8.070;2024-02-04T08:27:00;0.20;;;0.10;;
74342;SDS011;62767;50.300;8.070;2024-02-04T08:29:25;0.10;;;0.10;;
74342;SDS011;62767;50.300;8.070;2024-02-04T08:31:54;0.20;;;0.13;;
74342;SDS011;62767;50.300;8.070;2024-02-04T08:34:19;0.25;;;0.20;;
74342;SDS011;62767;50.300;8.070;2024-02-04T08:36:46;0.17;;;0.17;;
74342;SDS011;62767;50.300;8.070;2024-02-04T08:39:12;0.17;;;0.10;;
74342;SDS011;62767;50.300;8.070;2024-02-04T08:41:37;0.40;;;0.20;;
74342;SDS011;62767;50.300;8.070;2024-02-04T08:44:03;0.15;;;0.10;;
74342;SDS011;62767;50.300;8.070;2024-02-04T08:46:29;0.10;;;0.10;;
74342;SDS011;62767;50.300;8.070;2024-02-04T08:48:54;0.38;;;0.25;;
74342;SDS011;62767;50.300;8.070;2024-02-04T08:51:20;0.10;;;0.10;;
74342;SDS011;62767;50.300;8.070;2024-02-04T08:53:46;0.35;;;0.20;;
74342;SDS011;62767;50.300;8.070;2024-02-04T08:56:12;0.15;;;0.15;;
74342;SDS011;62767;50.300;8.070;2024-02-04T08:58:37;0.40;;;0.30;;
74342;SDS011;62767;50.300;8.070;2024-02-04T09:01:06;0.17;;;0.17;;
74342;SDS011;62767;50.300;8.070;2024-02-04T09:03:31;0.10;;;0.10;;
74342;SDS011;62767;50.300;8.070;2024-02-04T09:05:58;0.30;;;0.20;;
74342;SDS011;62767;50.300;8.070;2024-02-04T09:08:23;0.63;;;0.30;;
74342;SDS011;62767;50.300;8.070;2024-02-04T09:10:49;0.22;;;0.22;;
74342;SDS011;62767;50.300;8.070;2024-02-04T09:13:14;0.20;;;0.20;;
74342;SDS011;62767;50.300;8.070;2024-02-04T09:15:40;0.10;;;0.10;;
74342;SDS011;62767;50.300;8.070;2024-02-04T09:18:06;0.10;;;0.10;;
74342;SDS011;62767;50.300;8.070;2024-02-04T09:20:31;0.20;;;0.20;;
74342;SDS011;62767;50.300;8.070;2024-02-04T09:22:56;0.28;;;0.15;;
74342;SDS011;62767;50.300;8.070;2024-02-04T09:25:24;0.10;;;0.10;;
74342;SDS011;62767;50.300;8.070;2024-02-04T09:27:49;1.33;;;0.22;;
74342;SDS011;62767;50.300;8.070;2024-02-04T09:30:15;0.10;;;0.10;;
74342;SDS011;62767;50.300;8.070;2024-02-04T09:32:41;0.10;;;0.10;;
74342;SDS011;62767;50.300;8.070;2024-02-04T09:35:07;0.20;;;0.20;;
74342;SDS011;62767;50.300;8.070;2024-02-04T09:37:34;0.30;;;0.20;;
74342;SDS011;62767;50.300;8.070;2024-02-04T09:40:00;0.20;;;0.10;;
74342;SDS011;62767;50.300;8.070;2024-02-04T09:42:25;0.17;;;0.17;;
74342;SDS011;62767;50.300;8.070;2024-02-04T09:44:53;0.15;;;0.10;;
74342;SDS011;62767;50.300;8.070;2024-02-04T09:47:19;0.03;;;0.03;;
74342;SDS011;62767;50.300;8.070;2024-02-04T09:49:45;0.10;;;0.10;;
74342;SDS011;62767;50.300;8.070;2024-02-04T09:52:11;0.10;;;0.10;;
74342;SDS011;62767;50.300;8.070;2024-02-04T09:54:45;0.20;;;0.13;;
74342;SDS011;62767;50.300;8.070;2024-02-04T09:57:14;0.10;;;0.10;;
74342;SDS011;62767;50.300;8.070;2024-02-04T09:59:43;0.30;;;0.20;;
74342;SDS011;62767;50.300;8.070;2024-02-04T10:02:09;0.08;;;0.08;;
74342;SDS011;62767;50.300;8.070;2024-02-04T10:04:35;0.20;;;0.20;;
74342;SDS011;62767;50.300;8.070;2024-02-04T10:07:01;0.20;;;0.20;;
74342;SDS011;62767;50.300;8.070;2024-02-04T10:09:27;0.25;;;0.20;;
74342;SDS011;62767;50.300;8.070;2024-02-04T10:11:53;0.40;;;0.20;;
74342;SDS011;62767;50.300;8.070;2024-02-04T10:14:18;0.20;;;0.20;;
74342;SDS011;62767;50.300;8.070;2024-02-04T10:16:45;0.22;;;0.17;;
74342;SDS011;62767;50.300;8.070;2024-02-04T10:19:11;0.20;;;0.20;;
74342;SDS011;62767;50.300;8.070;2024-02-04T10:21:37;0.20;;;0.20;;
74342;SDS011;62767;50.300;8.070;2024-02-04T10:24:03;0.45;;;0.20;;
74342;SDS011;62767;50.300;8.070;2024-02-04T10:26:32;0.25;;;0.15;;
74342;SDS011;62767;50.300;8.070;2024-02-04T10:29:00;0.55;;;0.30;;
74342;SDS011;62767;50.300;8.070;2024-02-04T10:31:26;0.22;;;0.17;;
74342;SDS011;62767;50.300;8.070;2024-02-04T10:33:52;0.20;;;0.20;;
74342;SDS011;62767;50.300;8.070;2024-02-04T10:36:18;0.52;;;0.30;;
74342;SDS011;62767;50.300;8.070;2024-02-04T10:38:43;0.40;;;0.20;;
74342;SDS011;62767;50.300;8.070;2024-02-04T10:41:10;0.50;;;0.20;;
74342;SDS011;62767;50.300;8.070;2024-02-04T10:43:39;0.17;;;0.13;;
74342;SDS011;62767;50.300;8.070;2024-02-04T10:46:12;0.57;;;0.43;;
74342;SDS011;62767;50.300;8.070;2024-02-04T10:48:41;0.32;;;0.30;;
74342;SDS011;62767;50.300;8.070;2024-02-04T10:51:15;0.75;;;0.40;;
74342;SDS011;62767;50.300;8.070;2024-02-04T10:53:41;0.38;;;0.38;;
74342;SDS011;62767;50.300;8.070;2024-02-04T10:56:11;0.30;;;0.30;;
74342;SDS011;62767;50.300;8.070;2024-02-04T10:58:43;0.60;;;0.30;;
74342;SDS011;62767;50.300;8.070;2024-02-04T11:01:10;0.47;;;0.35;;
74342;SDS011;62767;50.300;8.070;2024-02-04T11:03:36;0.22;;;0.22;;
74342;SDS011;62767;50.300;8.070;2024-02-04T11:06:03;0.30;;;0.30;;
74342;SDS011;62767;50.300;8.070;2024-02-04T11:08:29;0.28;;;0.25;;
74342;SDS011;62767;50.300;8.070;2024-02-04T11:10:55;0.38;;;0.30;;
74342;SDS011;62767;50.300;8.070;2024-02-04T11:13:21;0.25;;;0.22;;
74342;SDS011;62767;50.300;8.070;2024-02-04T11:15:48;0.40;;;0.30;;
74342;SDS011;62767;50.300;8.070;2024-02-04T11:18:24;0.20;;;0.20;;
74342;SDS011;62767;50.300;8.070;2024-02-04T11:23:50;0.20;;;0.20;;
74342;SDS011;62767;50.300;8.070;2024-02-04T11:26:27;0.50;;;0.40;;
74342;SDS011;62767;50.300;8.070;2024-02-04T11:28:53;0.30;;;0.30;;
74342;SDS011;62767;50.300;8.070;2024-02-04T11:31:19;0.55;;;0.40;;
74342;SDS011;62767;50.300;8.070;2024-02-04T11:33:45;0.28;;;0.20;;
74342;SDS011;62767;50.300;8.070;2024-02-04T11:36:14;0.28;;;0.28;;
74342;SDS011;62767;50.300;8.070;2024-02-04T11:38:43;0.82;;;0.40;;
74342;SDS011;62767;50.300;8.070;2024-02-04T11:41:20;0.43;;;0.35;;
74342;SDS011;62767;50.300;8.070;2024-02-04T11:43:51;0.35;;;0.30;;
74342;SDS011;62767;50.300;8.070;2024-02-04T11:46:19;0.60;;;0.40;;
74342;SDS011;62767;50.300;8.070;2024-02-04T11:48:50;0.35;;;0.30;;
74342;SDS011;62767;50.300;8.070;2024-02-04T11:51:17;0.43;;;0.30;;
74342;SDS011;62767;50.300;8.070;2024-02-04T11:53:42;0.30;;;0.30;;
74342;SDS011;62767;50.300;8.070;2024-02-04T11:56:08;0.25;;;0.25;;
74342;SDS011;62767;50.300;8.070;2024-02-04T11:58:34;0.75;;;0.50;;
74342;SDS011;62767;50.300;8.070;2024-02-04T12:01:00;0.82;;;0.63;;
74342;SDS011;62767;50.300;8.070;2024-02-04T12:03:33;0.73;;;0.50;;
74342;SDS011;62767;50.300;8.070;2024-02-04T12:05:59;0.30;;;0.30;;
74342;SDS011;62767;50.300;8.070;2024-02-04T12:08:26;0.50;;;0.43;;
74342;SDS011;62767;50.300;8.070;2024-02-04T12:10:53;0.40;;;0.30;;
74342;SDS011;62767;50.300;8.070;2024-02-04T12:13:18;0.88;;;0.50;;
74342;SDS011;62767;50.300;8.070;2024-02-04T12:15:45;1.25;;;0.60;;
74342;SDS011;62767;50.300;8.070;2024-02-04T12:18:11;0.40;;;0.40;;
74342;SDS011;62767;50.300;8.070;2024-02-04T12:20:39;0.65;;;0.40;;
74342;SDS011;62767;50.300;8.070;2024-02-04T12:23:05;0.57;;;0.35;;
74342;SDS011;62767;50.300;8.070;2024-02-04T12:25:32;0.63;;;0.38;;
74342;SDS011;62767;50.300;8.070;2024-02-04T12:27:58;0.73;;;0.52;;
74342;SDS011;62767;50.300;8.070;2024-02-04T12:30:26;0.50;;;0.40;;
74342;SDS011;62767;50.300;8.070;2024-02-04T12:32:55;0.80;;;0.50;;
74342;SDS011;62767;50.300;8.070;2024-02-04T12:35:25;0.82;;;0.52;;
74342;SDS011;62767;50.300;8.070;2024-02-04T12:37:51;0.65;;;0.40;;
74342;SDS011;62767;50.300;8.070;2024-02-04T12:40:24;0.73;;;0.40;;
74342;SDS011;62767;50.300;8.070;2024-02-04T12:42:53;0.30;;;0.30;;
74342;SDS011;62767;50.300;8.070;2024-02-04T12:45:20;1.75;;;0.60;;
74342;SDS011;62767;50.300;8.070;2024-02-04T12:47:50;0.68;;;0.40;;
74342;SDS011;62767;50.300;8.070;2024-02-04T12:50:17;0.50;;;0.35;;
74342;SDS011;62767;50.300;8.070;2024-02-04T12:52:47;0.40;;;0.30;;
74342;SDS011;62767;50.300;8.070;2024-02-04T12:55:47;0.55;;;0.50;;
74342;SDS011;62767;50.300;8.070;2024-02-04T12:58:06;0.70;;;0.40;;
74342;SDS011;62767;50.300;8.070;2024-02-04T13:00:33;0.47;;;0.40;;
74342;SDS011;62767;50.300;8.070;2024-02-04T13:02:59;0.30;;;0.25;;
74342;SDS011;62767;50.300;8.070;2024-02-04T13:05:26;0.40;;;0.35;;
74342;SDS011;62767;50.300;8.070;2024-02-04T13:07:55;0.38;;;0.30;;
74342;SDS011;62767;50.300;8.070;2024-02-04T13:10:24;3.45;;;0.47;;
74342;SDS011;62767;50.300;8.070;2024-02-04T13:12:57;0.80;;;0.40;;
74342;SDS011;62767;50.300;8.070;2024-02-04T13:15:25;1.23;;;0.43;;
74342;SDS011;62767;50.300;8.070;2024-02-04T13:17:54;0.80;;;0.57;;
74342;SDS011;62767;50.300;8.070;2024-02-04T13:20:21;1.27;;;0.50;;
74342;SDS011;62767;50.300;8.070;2024-02-04T13:22:47;0.82;;;0.50;;
74342;SDS011;62767;50.300;8.070;2024-02-04T13:25:12;1.05;;;0.57;;
74342;SDS011;62767;50.300;8.070;2024-02-04T13:27:38;1.27;;;0.35;;
74342;SDS011;62767;50.300;8.070;2024-02-04T13:30:04;3.35;;;0.40;;
74342;SDS011;62767;50.300;8.070;2024-02-04T13:32:35;1.92;;;0.43;;
74342;SDS011;62767;50.300;8.070;2024-02-04T13:35:00;1.02;;;0.40;;
74342;SDS011;62767;50.300;8.070;2024-02-04T13:37:26;0.82;;;0.50;;
74342;SDS011;62767;50.300;8.070;2024-02-04T13:39:51;0.30;;;0.30;;
74342;SDS011;62767;50.300;8.070;2024-02-04T13:42:17;2.63;;;0.50;;
74342;SDS011;62767;50.300;8.070;2024-02-04T13:44:43;2.60;;;0.40;;
74342;SDS011;62767;50.300;8.070;2024-02-04T13:47:08;2.28;;;0.60;;
74342;SDS011;62767;50.300;8.070;2024-02-04T13:49:34;2.25;;;0.47;;
74342;SDS011;62767;50.300;8.070;2024-02-04T13:51:59;1.30;;;0.50;;
74342;SDS011;62767;50.300;8.070;2024-02-04T13:54:25;5.43;;;0.40;;
74342;SDS011;62767;50.300;8.070;2024-02-04T13:56:50;1.88;;;0.40;;
74342;SDS011;62767;50.300;8.070;2024-02-04T13:59:15;2.13;;;0.60;;
74342;SDS011;62767;50.300;8.070;2024-02-04T14:01:41;6.72;;;0.88;;
74342;SDS011;62767;50.300;8.070;2024-02-04T14:04:07;4.45;;;0.40;;
74342;SDS011;62767;50.300;8.070;2024-02-04T14:06:32;1.13;;;0.40;;
74342;SDS011;62767;50.300;8.070;2024-02-04T14:08:58;4.57;;;0.60;;
74342;SDS011;62767;50.300;8.070;2024-02-04T14:11:23;3.85;;;0.52;;
74342;SDS011;62767;50.300;8.070;2024-02-04T14:13:49;3.15;;;0.50;;
74342;SDS011;62767;50.300;8.070;2024-02-04T14:16:14;1.70;;;0.40;;
74342;SDS011;62767;50.300;8.070;2024-02-04T14:18:39;0.60;;;0.60;;
74342;SDS011;62767;50.300;8.070;2024-02-04T14:21:05;2.13;;;0.30;;
74342;SDS011;62767;50.300;8.070;2024-02-04T14:23:32;3.33;;;0.40;;
74342;SDS011;62767;50.300;8.070;2024-02-04T14:25:57;0.75;;;0.30;;
74342;SDS011;62767;50.300;8.070;2024-02-04T14:28:23;0.65;;;0.30;;
74342;SDS011;62767;50.300;8.070;2024-02-04T14:30:49;0.30;;;0.30;;
74342;SDS011;62767;50.300;8.070;2024-02-04T14:33:14;1.33;;;0.50;;
74342;SDS011;62767;50.300;8.070;2024-02-04T14:35:40;2.25;;;0.40;;
74342;SDS011;62767;50.300;8.070;2024-02-04T14:38:05;1.75;;;0.52;;
74342;SDS011;62767;50.300;8.070;2024-02-04T14:40:31;1.13;;;0.30;;
74342;SDS011;62767;50.300;8.070;2024-02-04T14:42:56;1.25;;;0.47;;
74342;SDS011;62767;50.300;8.070;2024-02-04T14:45:22;0.88;;;0.40;;
74342;SDS011;62767;50.300;8.070;2024-02-04T14:47:47;0.60;;;0.40;;
74342;SDS011;62767;50.300;8.070;2024-02-04T14:50:13;1.88;;;0.50;;
74342;SDS011;62767;50.300;8.070;2024-02-04T14:52:40;3.75;;;0.40;;
74342;SDS011;62767;50.300;8.070;2024-02-04T14:55:06;1.77;;;0.30;;
74342;SDS011;62767;50.300;8.070;2024-02-04T14:57:35;2.10;;;0.25;;